createdAt,value
2023-07-31T00:00:18.085Z,17.73
2023-07-31T00:02:19.891Z,17.82
2023-07-31T00:04:21.370Z,17.91
2023-07-31T00:06:22.794Z,17.97
2023-07-31T00:08:24.539Z,18.00
2023-07-31T00:10:26.000Z,18.01
2023-07-31T00:12:27.478Z,17.83
2023-07-31T00:14:29.082Z,17.87
2023-07-31T00:16:30.627Z,17.93
2023-07-31T00:18:32.113Z,17.96
2023-07-31T00:20:33.922Z,17.85
2023-07-31T00:22:35.354Z,17.89
2023-07-31T00:24:36.815Z,17.77
2023-07-31T00:26:38.818Z,17.78
2023-07-31T00:28:40.572Z,17.75
2023-07-31T00:30:42.019Z,17.80
2023-07-31T00:32:43.727Z,17.72
2023-07-31T00:34:45.191Z,17.86
2023-07-31T00:36:46.624Z,17.84
2023-07-31T00:38:48.577Z,17.79
2023-07-31T00:40:50.116Z,17.73
2023-07-31T00:42:51.569Z,17.76
2023-07-31T00:44:53.180Z,17.76
2023-07-31T00:46:55.408Z,17.76
2023-07-31T00:48:57.780Z,17.75
2023-07-31T00:50:59.488Z,17.57
2023-07-31T00:53:01.485Z,17.38
2023-07-31T00:55:02.984Z,17.35
2023-07-31T00:57:04.801Z,17.24
2023-07-31T00:59:06.227Z,16.95
2023-07-31T01:01:07.711Z,17.05
2023-07-31T01:03:09.495Z,17.05
2023-07-31T01:05:11.117Z,17.07
2023-07-31T01:07:21.346Z,17.16
2023-07-31T01:09:45.899Z,17.21
2023-07-31T01:12:01.193Z,17.08
2023-07-31T01:14:02.932Z,17.13
2023-07-31T01:16:04.591Z,17.05
2023-07-31T01:18:06.030Z,17.06
2023-07-31T01:20:12.997Z,17.09
2023-07-31T01:22:34.088Z,17.08
2023-07-31T01:24:49.291Z,17.09
2023-07-31T01:26:58.470Z,17.07
2023-07-31T01:29:09.651Z,16.94
2023-07-31T01:31:16.163Z,17.00
2023-07-31T01:33:18.076Z,16.90
2023-07-31T01:35:20.082Z,17.02
2023-07-31T01:37:21.559Z,16.96
2023-07-31T01:39:23.008Z,17.16
2023-07-31T01:41:24.599Z,17.23
2023-07-31T01:43:26.123Z,17.21
2023-07-31T01:45:27.804Z,17.34
2023-07-31T01:47:29.350Z,17.27
2023-07-31T01:49:30.823Z,17.40
2023-07-31T01:51:32.321Z,17.40
2023-07-31T01:53:33.933Z,17.32
2023-07-31T01:55:35.569Z,17.39
2023-07-31T01:57:37.883Z,17.41
2023-07-31T01:59:39.461Z,17.36
2023-07-31T02:01:41.114Z,17.26
2023-07-31T02:03:42.662Z,17.18
2023-07-31T02:05:49.001Z,17.09
2023-07-31T02:07:52.695Z,16.91
2023-07-31T02:09:54.038Z,17.11
2023-07-31T02:11:55.689Z,17.08
2023-07-31T02:13:57.389Z,17.00
2023-07-31T02:15:58.877Z,17.16
2023-07-31T02:18:00.670Z,17.24
2023-07-31T02:20:02.742Z,17.21
2023-07-31T02:22:04.560Z,17.31
2023-07-31T02:24:06.023Z,17.17
2023-07-31T02:26:07.459Z,17.28
2023-07-31T02:28:08.904Z,17.19
2023-07-31T02:30:10.958Z,17.17
2023-07-31T02:32:12.554Z,17.17
2023-07-31T02:34:14.565Z,17.11
2023-07-31T02:36:15.992Z,17.01
2023-07-31T02:38:17.576Z,17.07
2023-07-31T02:40:19.006Z,17.14
2023-07-31T02:42:20.511Z,17.13
2023-07-31T02:44:22.993Z,17.17
2023-07-31T02:46:24.459Z,17.25
2023-07-31T02:48:26.443Z,17.21
2023-07-31T02:50:28.030Z,17.10
2023-07-31T02:52:29.510Z,17.27
2023-07-31T02:54:31.026Z,17.34
2023-07-31T02:56:32.727Z,17.43
2023-07-31T02:58:34.183Z,17.35
2023-07-31T03:00:35.769Z,17.40
2023-07-31T03:02:37.630Z,17.53
2023-07-31T03:04:39.139Z,17.69
2023-07-31T03:06:40.933Z,17.68
2023-07-31T03:08:42.792Z,17.74
2023-07-31T03:10:44.206Z,17.84
2023-07-31T03:12:48.393Z,17.84
2023-07-31T03:14:49.891Z,17.86
2023-07-31T03:16:51.320Z,17.92
2023-07-31T03:18:52.848Z,17.86
2023-07-31T03:20:54.977Z,17.70
2023-07-31T03:22:56.397Z,17.75
2023-07-31T03:24:58.055Z,17.58
2023-07-31T03:26:59.655Z,17.59
2023-07-31T03:29:01.108Z,17.59
2023-07-31T03:31:02.886Z,17.50
2023-07-31T03:33:04.546Z,17.50
2023-07-31T03:35:06.477Z,17.38
2023-07-31T03:37:08.092Z,17.22
2023-07-31T03:39:09.588Z,17.00
2023-07-31T03:41:11.030Z,17.12
2023-07-31T03:43:13.127Z,17.14
2023-07-31T03:45:14.908Z,17.11
2023-07-31T03:47:16.514Z,17.29
2023-07-31T03:49:17.997Z,17.34
2023-07-31T03:51:19.548Z,17.31
2023-07-31T03:53:21.083Z,17.29
2023-07-31T03:55:22.615Z,17.19
2023-07-31T03:57:24.233Z,17.33
2023-07-31T03:59:25.674Z,17.47
2023-07-31T04:01:27.695Z,17.43
2023-07-31T04:03:29.370Z,17.49
2023-07-31T04:05:32.620Z,17.59
2023-07-31T04:07:34.359Z,17.52
2023-07-31T04:09:35.981Z,17.52
2023-07-31T04:11:37.416Z,17.58
2023-07-31T04:13:39.278Z,17.43
2023-07-31T04:15:40.812Z,17.49
2023-07-31T04:17:42.313Z,17.52
2023-07-31T04:19:43.836Z,17.55
2023-07-31T04:21:45.581Z,17.55
2023-07-31T04:23:47.046Z,17.56
2023-07-31T04:25:48.661Z,17.55
2023-07-31T04:27:50.402Z,17.58
2023-07-31T04:29:51.841Z,17.71
2023-07-31T04:31:53.371Z,17.78
2023-07-31T04:33:54.824Z,17.76
2023-07-31T04:35:56.262Z,17.66
2023-07-31T04:37:57.944Z,17.80
2023-07-31T04:39:59.548Z,17.73
2023-07-31T04:42:00.981Z,17.89
2023-07-31T04:44:02.847Z,17.81
2023-07-31T04:46:04.501Z,17.91
2023-07-31T04:48:06.087Z,17.96
2023-07-31T04:50:08.212Z,18.21
2023-07-31T04:52:09.746Z,18.25
2023-07-31T04:54:11.217Z,18.15
2023-07-31T04:56:12.844Z,18.23
2023-07-31T04:58:14.356Z,18.00
2023-07-31T05:00:15.994Z,18.09
2023-07-31T05:02:17.690Z,18.19
2023-07-31T05:04:19.732Z,18.22
2023-07-31T05:06:21.178Z,18.15
2023-07-31T05:08:22.997Z,18.21
2023-07-31T05:10:24.634Z,18.28
2023-07-31T05:12:26.250Z,18.35
2023-07-31T05:14:28.646Z,18.24
2023-07-31T05:16:30.323Z,18.20
2023-07-31T05:18:32.378Z,18.45
2023-07-31T05:20:34.045Z,18.50
2023-07-31T05:22:35.640Z,18.51
2023-07-31T05:24:37.064Z,18.37
2023-07-31T05:26:38.724Z,18.33
2023-07-31T05:28:41.717Z,18.33
2023-07-31T05:30:43.189Z,18.34
2023-07-31T05:32:45.244Z,18.41
2023-07-31T05:34:46.878Z,18.35
2023-07-31T05:36:48.325Z,18.58
2023-07-31T05:38:50.411Z,18.79
2023-07-31T05:40:52.021Z,18.95
2023-07-31T05:42:53.484Z,18.95
2023-07-31T05:44:55.321Z,18.79
2023-07-31T05:46:56.858Z,18.71
2023-07-31T05:48:58.293Z,18.65
2023-07-31T05:50:59.835Z,18.86
2023-07-31T05:53:01.376Z,18.90
2023-07-31T05:55:03.265Z,18.91
2023-07-31T05:57:05.176Z,19.03
2023-07-31T05:59:06.741Z,18.83
2023-07-31T06:01:08.225Z,18.86
2023-07-31T06:03:10.229Z,19.11
2023-07-31T06:05:12.218Z,18.90
2023-07-31T06:07:13.678Z,18.97
2023-07-31T06:09:15.292Z,19.11
2023-07-31T06:11:16.938Z,19.38
2023-07-31T06:13:18.402Z,19.31
2023-07-31T06:15:21.016Z,19.34
2023-07-31T06:17:22.646Z,19.21
2023-07-31T06:19:24.138Z,19.28
2023-07-31T06:21:25.914Z,19.10
2023-07-31T06:23:27.663Z,19.09
2023-07-31T06:25:29.204Z,19.19
2023-07-31T06:27:30.765Z,19.34
2023-07-31T06:29:32.580Z,19.45
2023-07-31T06:31:34.102Z,19.51
2023-07-31T06:33:35.860Z,19.60
2023-07-31T06:35:37.456Z,19.79
2023-07-31T06:37:38.922Z,19.94
2023-07-31T06:39:40.837Z,20.28
2023-07-31T06:41:43.557Z,20.41
2023-07-31T06:43:44.984Z,21.12
2023-07-31T06:45:46.615Z,21.11
2023-07-31T06:47:48.369Z,20.92
2023-07-31T06:49:49.807Z,20.62
2023-07-31T06:51:51.448Z,20.34
2023-07-31T06:53:52.960Z,20.24
2023-07-31T06:55:54.410Z,20.24
2023-07-31T06:57:56.779Z,20.48
2023-07-31T06:59:58.304Z,20.55
2023-07-31T07:01:59.749Z,20.38
2023-07-31T07:04:01.430Z,20.58
2023-07-31T07:06:03.102Z,20.68
2023-07-31T07:08:04.752Z,20.86
2023-07-31T07:10:06.852Z,20.81
2023-07-31T07:12:08.973Z,20.95
2023-07-31T07:14:10.442Z,21.04
2023-07-31T07:16:12.160Z,21.21
2023-07-31T07:18:13.757Z,21.56
2023-07-31T07:20:15.204Z,21.97
2023-07-31T07:22:16.866Z,21.74
2023-07-31T07:24:18.438Z,21.86
2023-07-31T07:26:20.949Z,21.99
2023-07-31T07:28:22.599Z,21.78
2023-07-31T07:30:25.609Z,21.82
2023-07-31T07:32:27.147Z,22.28
2023-07-31T07:34:29.483Z,22.58
2023-07-31T07:36:30.996Z,22.89
2023-07-31T07:38:32.432Z,22.81
2023-07-31T07:40:34.627Z,22.43
2023-07-31T07:42:36.152Z,22.13
2023-07-31T07:44:37.586Z,22.15
2023-07-31T07:46:39.656Z,22.30
2023-07-31T07:48:41.320Z,21.87
2023-07-31T07:50:42.780Z,21.86
2023-07-31T07:52:44.520Z,21.59
2023-07-31T07:54:45.960Z,21.91
2023-07-31T07:56:47.396Z,21.73
2023-07-31T07:58:52.463Z,22.15
2023-07-31T08:00:53.982Z,22.55
2023-07-31T08:02:55.583Z,22.47
2023-07-31T08:04:57.392Z,22.26
2023-07-31T08:06:58.829Z,22.30
2023-07-31T08:09:00.982Z,22.16
2023-07-31T08:11:03.137Z,21.96
2023-07-31T08:13:04.591Z,21.84
2023-07-31T08:15:06.873Z,21.84
2023-07-31T08:17:08.623Z,21.35
2023-07-31T08:19:10.208Z,21.26
2023-07-31T08:21:11.886Z,21.49
2023-07-31T08:23:13.785Z,21.53
2023-07-31T08:25:15.323Z,21.60
2023-07-31T08:27:16.758Z,21.64
2023-07-31T08:29:18.610Z,21.58
2023-07-31T08:31:20.428Z,21.73
2023-07-31T08:33:21.948Z,21.58
2023-07-31T08:35:25.329Z,21.29
2023-07-31T08:37:26.772Z,21.33
2023-07-31T08:39:28.219Z,21.56
2023-07-31T08:41:30.059Z,21.69
2023-07-31T08:43:32.047Z,21.78
2023-07-31T08:45:33.675Z,21.81
2023-07-31T08:47:36.175Z,22.04
2023-07-31T08:49:39.540Z,22.11
2023-07-31T08:53:43.741Z,21.89
2023-07-31T08:55:45.946Z,21.97
2023-07-31T08:57:48.110Z,21.81
2023-07-31T08:59:50.559Z,21.73
2023-07-31T09:01:55.864Z,21.44
2023-07-31T09:04:00.660Z,21.57
2023-07-31T09:06:03.749Z,21.33
2023-07-31T09:08:06.111Z,21.58
2023-07-31T09:10:07.911Z,21.78
2023-07-31T09:12:09.755Z,21.81
2023-07-31T09:14:11.718Z,22.07
2023-07-31T09:16:13.411Z,21.81
2023-07-31T09:18:15.080Z,22.32
2023-07-31T09:20:21.597Z,22.14
2023-07-31T09:22:36.817Z,22.38
2023-07-31T09:24:38.717Z,22.71
2023-07-31T09:26:40.640Z,22.79
2023-07-31T09:28:42.461Z,22.80
2023-07-31T09:30:49.205Z,22.69
2023-07-31T09:32:52.300Z,22.88
2023-07-31T09:34:53.767Z,22.98
2023-07-31T09:36:55.399Z,22.43
2023-07-31T09:38:56.972Z,22.49
2023-07-31T09:40:59.816Z,22.62
2023-07-31T09:43:06.405Z,22.74
2023-07-31T09:45:09.305Z,23.01
2023-07-31T09:47:26.634Z,22.84
2023-07-31T09:49:30.150Z,22.57
2023-07-31T09:51:31.626Z,22.59
2023-07-31T09:53:33.056Z,22.65
2023-07-31T09:55:35.374Z,23.00
2023-07-31T09:57:42.134Z,23.15
2023-07-31T09:59:43.675Z,23.42
2023-07-31T10:01:46.918Z,23.58
2023-07-31T10:03:48.886Z,23.80
2023-07-31T10:05:52.136Z,24.02
2023-07-31T10:07:56.496Z,23.93
2023-07-31T10:10:04.109Z,23.32
2023-07-31T10:12:12.160Z,23.18
2023-07-31T10:14:14.712Z,22.94
2023-07-31T10:16:17.053Z,23.17
2023-07-31T10:18:19.669Z,23.62
2023-07-31T10:20:22.119Z,23.77
2023-07-31T10:22:24.689Z,23.68
2023-07-31T10:24:26.780Z,23.95
2023-07-31T10:26:28.444Z,24.06
2023-07-31T10:28:30.534Z,23.69
2023-07-31T10:30:34.714Z,23.62
2023-07-31T10:32:37.151Z,23.57
2023-07-31T10:34:41.343Z,24.05
2023-07-31T10:36:42.807Z,23.81
2023-07-31T10:38:44.578Z,23.86
2023-07-31T10:40:46.140Z,23.52
2023-07-31T10:42:49.802Z,23.57
2023-07-31T10:44:51.295Z,23.74
2023-07-31T10:46:56.252Z,23.87
2023-07-31T10:49:02.839Z,23.85
2023-07-31T10:51:09.653Z,23.02
2023-07-31T10:53:24.367Z,23.48
2023-07-31T10:55:43.263Z,23.96
2023-07-31T10:57:48.224Z,23.90
2023-07-31T10:59:50.786Z,24.04
2023-07-31T11:01:57.069Z,24.04
2023-07-31T11:03:58.904Z,23.71
2023-07-31T11:06:02.793Z,23.98
2023-07-31T11:08:14.883Z,23.96
2023-07-31T11:10:20.617Z,24.16
2023-07-31T11:12:22.352Z,23.99
2023-07-31T11:14:24.218Z,23.76
2023-07-31T11:16:26.759Z,23.66
2023-07-31T11:18:28.578Z,24.01
2023-07-31T11:20:33.855Z,24.05
2023-07-31T11:22:36.621Z,24.08
2023-07-31T11:24:38.130Z,24.15
2023-07-31T11:26:39.915Z,24.31
2023-07-31T11:28:42.026Z,24.40
2023-07-31T11:30:45.068Z,24.55
2023-07-31T11:32:46.883Z,24.46
2023-07-31T11:34:55.649Z,24.74
2023-07-31T11:36:57.746Z,24.77
2023-07-31T11:39:09.333Z,25.08
2023-07-31T11:41:10.927Z,24.71
2023-07-31T11:43:12.421Z,24.78
2023-07-31T11:45:14.013Z,24.49
2023-07-31T11:47:17.312Z,24.39
2023-07-31T11:49:18.770Z,25.02
2023-07-31T11:51:22.265Z,24.94
2023-07-31T11:53:28.037Z,24.61
2023-07-31T11:55:29.992Z,24.39
2023-07-31T11:57:31.822Z,24.34
2023-07-31T11:59:33.834Z,23.83
2023-07-31T12:01:35.423Z,23.75
2023-07-31T12:03:37.323Z,23.59
2023-07-31T12:05:39.281Z,23.80
2023-07-31T12:07:51.853Z,23.46
2023-07-31T12:09:57.179Z,23.42
2023-07-31T12:11:58.812Z,23.41
2023-07-31T12:14:00.260Z,23.46
2023-07-31T12:16:03.381Z,23.41
2023-07-31T12:18:06.951Z,23.50
2023-07-31T12:20:09.677Z,23.40
2023-07-31T12:22:15.826Z,23.19
2023-07-31T12:24:19.897Z,23.11
2023-07-31T12:26:21.406Z,23.14
2023-07-31T12:28:26.006Z,22.88
2023-07-31T12:30:33.413Z,23.08
2023-07-31T12:32:34.886Z,22.94
2023-07-31T12:34:43.792Z,22.91
2023-07-31T12:36:45.573Z,22.81
2023-07-31T12:38:47.096Z,22.76
2023-07-31T12:40:48.553Z,22.41
2023-07-31T12:42:50.250Z,22.34
2023-07-31T12:44:51.688Z,22.21
2023-07-31T12:46:53.133Z,22.10
2023-07-31T12:48:55.366Z,22.33
2023-07-31T12:50:56.908Z,22.59
2023-07-31T12:52:58.987Z,22.79
2023-07-31T12:55:00.886Z,22.67
2023-07-31T12:57:02.328Z,22.66
2023-07-31T12:59:03.796Z,22.81
2023-07-31T13:01:05.715Z,22.67
2023-07-31T13:03:07.293Z,22.45
2023-07-31T13:05:09.646Z,22.67
2023-07-31T13:07:11.422Z,22.54
2023-07-31T13:09:13.040Z,22.49
2023-07-31T13:11:14.520Z,22.50
2023-07-31T13:13:16.269Z,22.27
2023-07-31T13:15:17.793Z,22.52
2023-07-31T13:17:19.477Z,22.64
2023-07-31T13:19:21.091Z,22.76
2023-07-31T13:21:22.519Z,23.20
2023-07-31T13:23:23.956Z,23.44
2023-07-31T13:25:25.715Z,23.58
2023-07-31T13:27:27.165Z,23.69
2023-07-31T13:29:28.606Z,23.74
2023-07-31T13:31:30.450Z,23.86
2023-07-31T13:33:38.001Z,23.50
2023-07-31T13:35:40.869Z,23.27
2023-07-31T13:37:42.775Z,23.15
2023-07-31T13:39:44.473Z,23.43
2023-07-31T13:41:45.961Z,23.37
2023-07-31T13:43:47.754Z,22.99
2023-07-31T13:45:49.197Z,22.71
2023-07-31T13:47:51.349Z,22.55
2023-07-31T13:49:53.021Z,22.58
2023-07-31T13:51:54.454Z,22.74
2023-07-31T13:53:55.886Z,22.55
2023-07-31T13:55:57.503Z,22.47
2023-07-31T13:57:58.958Z,22.33
2023-07-31T14:00:00.429Z,22.26
2023-07-31T14:02:03.933Z,22.35
2023-07-31T14:04:05.459Z,22.42
2023-07-31T14:06:07.127Z,22.57
2023-07-31T14:08:08.738Z,22.91
2023-07-31T14:10:10.572Z,23.13
2023-07-31T14:12:12.061Z,23.32
2023-07-31T14:14:13.666Z,23.55
2023-07-31T14:16:15.258Z,23.40
2023-07-31T14:18:16.949Z,23.23
2023-07-31T14:20:19.094Z,23.30
2023-07-31T14:22:31.208Z,23.10
2023-07-31T14:24:33.061Z,23.34
2023-07-31T14:26:34.574Z,23.70
2023-07-31T14:28:36.150Z,23.65
2023-07-31T14:30:37.696Z,23.71
2023-07-31T14:32:39.217Z,23.63
2023-07-31T14:34:40.905Z,23.71
2023-07-31T14:36:42.515Z,23.77
2023-07-31T14:38:44.280Z,23.85
2023-07-31T14:40:45.926Z,23.55
2023-07-31T14:42:47.444Z,23.48
2023-07-31T14:44:48.947Z,23.31
2023-07-31T14:46:50.521Z,23.20
2023-07-31T14:48:51.972Z,22.99
2023-07-31T14:50:53.650Z,22.93
2023-07-31T14:52:55.397Z,23.12
2023-07-31T14:54:56.841Z,23.38
2023-07-31T14:56:58.364Z,23.60
2023-07-31T14:59:00.191Z,23.84
2023-07-31T15:01:01.654Z,24.00
2023-07-31T15:03:04.101Z,24.14
2023-07-31T15:05:06.373Z,23.63
2023-07-31T15:07:07.809Z,23.63
2023-07-31T15:09:09.486Z,23.95
2023-07-31T15:11:11.135Z,23.84
2023-07-31T15:13:12.602Z,23.66
2023-07-31T15:15:16.139Z,23.65
2023-07-31T15:17:17.609Z,23.41
2023-07-31T15:19:19.026Z,23.21
2023-07-31T15:21:20.573Z,23.04
2023-07-31T15:23:22.057Z,22.62
2023-07-31T15:25:23.506Z,22.74
2023-07-31T15:27:25.147Z,22.72
2023-07-31T15:29:26.746Z,22.81
2023-07-31T15:31:28.605Z,22.39
2023-07-31T15:33:30.195Z,22.33
2023-07-31T15:35:31.857Z,22.28
2023-07-31T15:37:33.372Z,22.14
2023-07-31T15:39:34.949Z,22.14
2023-07-31T15:41:37.673Z,22.28
2023-07-31T15:43:39.109Z,22.03
2023-07-31T15:45:40.658Z,22.14
2023-07-31T15:47:42.260Z,22.00
2023-07-31T15:49:43.690Z,21.89
2023-07-31T15:51:45.483Z,21.96
2023-07-31T15:53:47.316Z,22.12
2023-07-31T15:55:48.752Z,22.10
2023-07-31T15:57:50.380Z,22.14
2023-07-31T15:59:51.960Z,22.11
2023-07-31T16:01:53.617Z,22.15
2023-07-31T16:03:55.288Z,22.08
2023-07-31T16:05:56.870Z,22.01
2023-07-31T16:07:58.396Z,21.91
2023-07-31T16:10:00.058Z,22.17
2023-07-31T16:12:01.671Z,22.17
2023-07-31T16:14:03.092Z,22.07
2023-07-31T16:16:04.954Z,22.19
2023-07-31T16:18:06.640Z,22.34
2023-07-31T16:20:08.589Z,22.16
2023-07-31T16:22:10.261Z,21.91
2023-07-31T16:24:11.717Z,22.10
2023-07-31T16:26:13.156Z,22.12
2023-07-31T16:28:14.726Z,22.10
2023-07-31T16:30:16.355Z,22.11
2023-07-31T16:32:17.971Z,22.12
2023-07-31T16:34:19.773Z,22.23
2023-07-31T16:36:21.374Z,22.50
2023-07-31T16:38:22.798Z,22.77
2023-07-31T16:40:24.352Z,22.99
2023-07-31T16:42:25.932Z,23.39
2023-07-31T16:44:27.366Z,23.32
2023-07-31T16:46:29.019Z,23.38
2023-07-31T16:48:30.536Z,23.47
2023-07-31T16:50:31.966Z,23.29
2023-07-31T16:52:33.512Z,23.11
2023-07-31T16:54:35.343Z,23.19
2023-07-31T16:56:56.956Z,22.91
2023-07-31T16:58:58.418Z,22.56
2023-07-31T17:01:00.218Z,22.61
2023-07-31T17:03:02.563Z,22.63
2023-07-31T17:05:04.545Z,22.42
2023-07-31T17:07:06.249Z,22.37
2023-07-31T17:09:07.845Z,22.34
2023-07-31T17:11:09.668Z,22.45
2023-07-31T17:13:11.220Z,22.47
2023-07-31T17:15:12.670Z,22.69
2023-07-31T17:17:14.413Z,22.70
2023-07-31T17:19:16.116Z,22.67
2023-07-31T17:21:17.534Z,22.77
2023-07-31T17:23:19.134Z,22.88
2023-07-31T17:25:20.676Z,22.77
2023-07-31T17:27:22.116Z,22.75
2023-07-31T17:29:29.604Z,22.67
2023-07-31T17:31:31.628Z,22.60
2023-07-31T17:33:33.136Z,22.65
2023-07-31T17:35:35.215Z,22.69
2023-07-31T17:37:36.707Z,22.46
2023-07-31T17:39:38.136Z,22.48
2023-07-31T17:41:39.776Z,22.59
2023-07-31T17:43:41.330Z,22.51
2023-07-31T17:45:42.758Z,22.57
2023-07-31T17:47:45.268Z,22.58
2023-07-31T17:49:47.024Z,22.53
2023-07-31T17:51:48.473Z,22.46
2023-07-31T17:53:50.080Z,22.38
2023-07-31T17:55:52.216Z,22.39
2023-07-31T17:57:53.672Z,22.26
2023-07-31T17:59:55.281Z,22.19
2023-07-31T18:01:57.057Z,22.13
2023-07-31T18:03:58.620Z,21.95
2023-07-31T18:06:00.386Z,21.83
2023-07-31T18:08:01.984Z,21.85
2023-07-31T18:10:03.587Z,21.75
2023-07-31T18:12:05.733Z,21.78
2023-07-31T18:14:08.631Z,21.68
2023-07-31T18:16:10.328Z,21.56
2023-07-31T18:18:12.085Z,21.61
2023-07-31T18:20:13.737Z,21.43
2023-07-31T18:22:15.182Z,21.30
2023-07-31T18:24:16.861Z,21.24
2023-07-31T18:26:18.387Z,21.24
2023-07-31T18:28:19.867Z,21.22
2023-07-31T18:30:21.472Z,21.17
2023-07-31T18:32:23.054Z,20.97
2023-07-31T18:34:24.493Z,21.06
2023-07-31T18:36:26.069Z,21.05
2023-07-31T18:38:27.588Z,21.06
2023-07-31T18:40:29.006Z,20.84
2023-07-31T18:42:30.471Z,21.00
2023-07-31T18:44:31.997Z,20.96
2023-07-31T18:46:33.548Z,20.98
2023-07-31T18:48:35.164Z,21.11
2023-07-31T18:50:41.697Z,21.18
2023-07-31T18:52:43.178Z,21.20
2023-07-31T18:54:44.734Z,21.00
2023-07-31T18:56:46.327Z,21.13
2023-07-31T18:58:47.982Z,21.16
2023-07-31T19:00:49.409Z,21.26
2023-07-31T19:02:50.976Z,21.29
2023-07-31T19:04:52.525Z,21.25
2023-07-31T19:06:54.221Z,21.20
2023-07-31T19:08:55.683Z,21.32
2023-07-31T19:10:57.209Z,21.28
2023-07-31T19:12:58.751Z,21.30
2023-07-31T19:15:00.328Z,21.28
2023-07-31T19:17:01.801Z,21.09
2023-07-31T19:19:03.308Z,21.14
2023-07-31T19:21:04.902Z,20.99
2023-07-31T19:23:06.316Z,21.04
2023-07-31T19:25:08.418Z,21.07
2023-07-31T19:27:09.976Z,21.17
2023-07-31T19:29:11.404Z,21.13
2023-07-31T19:31:12.843Z,21.11
2023-07-31T19:33:14.531Z,21.12
2023-07-31T19:35:16.403Z,21.19
2023-07-31T19:37:17.935Z,21.13
2023-07-31T19:39:19.523Z,21.03
2023-07-31T19:41:21.028Z,21.04
2023-07-31T19:43:22.679Z,21.05
2023-07-31T19:45:24.465Z,21.10
2023-07-31T19:47:25.993Z,21.07
2023-07-31T19:49:28.991Z,21.15
2023-07-31T19:51:30.517Z,21.25
2023-07-31T19:53:31.965Z,21.12
2023-07-31T19:55:33.571Z,21.07
2023-07-31T19:57:35.112Z,20.95
2023-07-31T19:59:36.544Z,20.76
2023-07-31T20:01:38.239Z,20.81
2023-07-31T20:03:39.824Z,20.93
2023-07-31T20:05:41.294Z,20.94
2023-07-31T20:07:42.973Z,20.87
2023-07-31T20:09:44.446Z,20.81
2023-07-31T20:11:45.864Z,21.02
2023-07-31T20:13:47.524Z,20.92
2023-07-31T20:15:49.091Z,21.07
2023-07-31T20:17:51.332Z,20.80
2023-07-31T20:19:52.973Z,20.89
2023-07-31T20:21:54.597Z,21.00
2023-07-31T20:23:56.036Z,20.88
2023-07-31T20:25:57.574Z,20.84
2023-07-31T20:27:59.331Z,20.78
2023-07-31T20:30:00.832Z,20.86
2023-07-31T20:32:02.413Z,20.81
2023-07-31T20:34:04.014Z,20.91
2023-07-31T20:36:05.557Z,20.96
2023-07-31T20:38:07.093Z,20.99
2023-07-31T20:40:09.310Z,20.99
2023-07-31T20:42:10.776Z,21.06
2023-07-31T20:44:12.406Z,21.03
2023-07-31T20:46:14.050Z,20.76
2023-07-31T20:48:15.624Z,20.92
2023-07-31T20:50:17.294Z,20.89
2023-07-31T20:52:18.809Z,20.81
2023-07-31T20:54:20.235Z,20.86
2023-07-31T20:56:21.827Z,20.94
2023-07-31T20:58:23.394Z,20.91
2023-07-31T21:00:24.970Z,21.08
2023-07-31T21:02:26.761Z,21.10
2023-07-31T21:04:28.500Z,20.94
2023-07-31T21:06:29.985Z,21.03
2023-07-31T21:08:31.626Z,20.92
2023-07-31T21:10:38.531Z,20.98
2023-07-31T21:12:40.059Z,20.93
2023-07-31T21:14:44.712Z,20.88
2023-07-31T21:16:46.270Z,20.92
2023-07-31T21:18:47.725Z,20.97
2023-07-31T21:20:49.454Z,20.98
2023-07-31T21:22:51.061Z,21.01
2023-07-31T21:24:53.160Z,20.91
2023-07-31T21:26:54.696Z,20.97
2023-07-31T21:28:56.346Z,20.98
2023-07-31T21:30:57.797Z,20.94
2023-07-31T21:32:59.290Z,21.05
2023-07-31T21:35:00.805Z,20.93
2023-07-31T21:37:02.224Z,20.95
2023-07-31T21:39:03.821Z,20.83
2023-07-31T21:41:05.465Z,20.80
2023-07-31T21:43:06.905Z,20.76
2023-07-31T21:45:08.668Z,20.91
2023-07-31T21:47:10.300Z,20.78
2023-07-31T21:49:11.800Z,20.79
2023-07-31T21:51:13.489Z,20.72
2023-07-31T21:53:14.961Z,20.74
2023-07-31T21:55:16.412Z,20.73
2023-07-31T21:57:17.942Z,20.82
2023-07-31T21:59:19.450Z,20.76
2023-07-31T22:01:20.932Z,20.72
2023-07-31T22:03:22.611Z,20.75
2023-07-31T22:05:24.172Z,20.79
2023-07-31T22:07:25.636Z,20.72
2023-07-31T22:09:27.274Z,20.68
2023-07-31T22:11:28.790Z,20.71
2023-07-31T22:13:31.422Z,20.70
2023-07-31T22:15:32.995Z,20.65
2023-07-31T22:17:34.660Z,20.67
2023-07-31T22:19:36.160Z,20.68
2023-07-31T22:21:37.793Z,20.77
2023-07-31T22:23:39.473Z,20.71
2023-07-31T22:25:40.956Z,20.62
2023-07-31T22:27:42.584Z,20.65
2023-07-31T22:29:44.330Z,20.82
2023-07-31T22:31:45.824Z,20.80
2023-07-31T22:33:47.433Z,20.89
2023-07-31T22:35:50.005Z,20.85
2023-07-31T22:37:51.436Z,20.80
2023-07-31T22:39:53.064Z,20.75
2023-07-31T22:41:54.902Z,20.78
2023-07-31T22:43:56.367Z,20.87
2023-07-31T22:45:58.038Z,20.68
2023-07-31T22:47:59.672Z,20.80
2023-07-31T22:50:01.200Z,20.75
2023-07-31T22:52:02.649Z,20.91
2023-07-31T22:54:04.143Z,20.89
2023-07-31T22:56:06.807Z,20.91
2023-07-31T22:58:08.655Z,20.82
2023-07-31T23:00:10.632Z,20.64
2023-07-31T23:02:12.131Z,20.91
2023-07-31T23:04:13.860Z,20.83
2023-07-31T23:06:15.358Z,20.93
2023-07-31T23:08:16.807Z,20.98
2023-07-31T23:10:18.551Z,20.99
2023-07-31T23:12:19.990Z,20.63
2023-07-31T23:14:21.410Z,20.90
2023-07-31T23:16:23.236Z,20.89
2023-07-31T23:18:24.757Z,20.72
2023-07-31T23:20:26.173Z,20.73
2023-07-31T23:22:27.947Z,20.70
2023-07-31T23:24:29.381Z,20.46
2023-07-31T23:26:30.848Z,20.50
2023-07-31T23:28:32.750Z,20.71
2023-07-31T23:30:34.256Z,20.62
2023-07-31T23:32:35.747Z,20.78
2023-07-31T23:34:37.721Z,20.74
2023-07-31T23:36:42.389Z,20.82
2023-07-31T23:38:44.108Z,20.83
2023-07-31T23:40:45.854Z,20.81
2023-07-31T23:42:47.304Z,20.69
2023-07-31T23:44:57.030Z,20.79
2023-07-31T23:47:10.321Z,20.64
2023-07-31T23:49:11.759Z,20.61
2023-07-31T23:51:13.303Z,20.59
2023-07-31T23:53:15.384Z,20.67
2023-07-31T23:55:17.824Z,20.65
2023-07-31T23:57:20.161Z,20.76
2023-07-31T23:59:22.048Z,20.74
